createdAt,value
2018-03-28T00:01:16.833Z,18.33
2018-03-28T00:03:45.716Z,17.83
2018-03-28T00:06:14.619Z,17.98
2018-03-28T00:08:43.512Z,17.73
2018-03-28T00:11:12.399Z,18.40
2018-03-28T00:13:40.508Z,17.30
2018-03-28T00:16:08.670Z,17.73
2018-03-28T00:18:36.798Z,17.83
2018-03-28T00:21:05.018Z,18.33
2018-03-28T00:23:33.142Z,17.23
2018-03-28T00:26:01.261Z,17.98
2018-03-28T00:28:29.398Z,15.45
2018-03-28T00:30:58.296Z,15.73
2018-03-28T00:33:27.188Z,16.70
2018-03-28T00:35:55.392Z,15.35
2018-03-28T00:38:23.520Z,17.10
2018-03-28T00:40:51.647Z,16.98
2018-03-28T00:43:19.804Z,17.17
2018-03-28T00:45:47.940Z,17.65
2018-03-28T00:48:16.078Z,16.95
2018-03-28T00:50:44.208Z,17.25
2018-03-28T00:53:13.097Z,18.33
2018-03-28T00:55:42.000Z,18.02
2018-03-28T00:58:10.887Z,18.70
2018-03-28T01:00:39.004Z,18.48
2018-03-28T01:03:07.112Z,19.87
2018-03-28T01:05:36.018Z,20.62
2018-03-28T01:08:05.032Z,22.05
2018-03-28T01:10:33.164Z,24.12
2018-03-28T01:13:02.791Z,24.55
2018-03-28T01:15:31.679Z,26.05
2018-03-28T01:18:00.568Z,27.17
2018-03-28T01:20:29.468Z,29.77
2018-03-28T01:22:57.591Z,29.05
2018-03-28T01:25:25.718Z,30.42
2018-03-28T01:27:53.895Z,30.83
2018-03-28T01:30:22.026Z,31.20
2018-03-28T01:32:50.147Z,27.85
2018-03-28T01:35:18.268Z,28.65
2018-03-28T01:37:46.498Z,28.42
2018-03-28T01:40:14.647Z,28.55
2018-03-28T01:42:43.539Z,29.02
2018-03-28T01:45:12.427Z,28.87
2018-03-28T01:47:41.332Z,29.33
2018-03-28T01:50:09.510Z,30.48
2018-03-28T01:52:37.577Z,30.70
2018-03-28T01:55:05.688Z,31.77
2018-03-28T01:57:33.807Z,29.87
2018-03-28T02:00:02.716Z,29.58
2018-03-28T02:02:31.599Z,30.67
2018-03-28T02:04:59.711Z,29.77
2018-03-28T02:07:27.852Z,29.12
2018-03-28T02:09:55.994Z,28.42
2018-03-28T02:12:24.187Z,28.42
2018-03-28T02:14:52.312Z,29.33
2018-03-28T02:17:20.443Z,28.60
2018-03-28T02:19:48.578Z,30.00
2018-03-28T02:22:17.523Z,30.40
2018-03-28T02:24:45.662Z,29.63
2018-03-28T02:27:14.550Z,29.35
2018-03-28T02:29:43.447Z,31.15
2018-03-28T02:32:12.343Z,30.15
2018-03-28T02:34:40.470Z,29.50
2018-03-28T02:37:08.587Z,30.75
2018-03-28T02:39:36.724Z,30.02
2018-03-28T02:42:06.359Z,29.00
2018-03-28T02:44:35.239Z,29.15
2018-03-28T02:47:04.132Z,28.85
2018-03-28T02:49:33.035Z,30.67
2018-03-28T02:52:01.151Z,30.30
2018-03-28T02:54:29.268Z,30.25
2018-03-28T02:56:57.861Z,29.90
2018-03-28T02:59:25.985Z,31.08
2018-03-28T03:01:54.095Z,29.85
2018-03-28T03:04:23.013Z,30.08
2018-03-28T03:06:51.137Z,30.23
2018-03-28T03:09:20.351Z,30.92
2018-03-28T03:11:49.291Z,31.87
2018-03-28T03:14:17.392Z,32.08
2018-03-28T03:16:45.502Z,33.03
2018-03-28T03:19:13.624Z,32.05
2018-03-28T03:21:41.772Z,32.92
2018-03-28T03:24:10.036Z,32.97
2018-03-28T03:26:38.168Z,33.08
2018-03-28T03:29:06.276Z,32.22
2018-03-28T03:31:34.408Z,32.75
2018-03-28T03:34:02.520Z,33.50
2018-03-28T03:36:30.646Z,32.67
2018-03-28T03:38:58.776Z,33.42
2018-03-28T03:41:26.904Z,34.38
2018-03-28T03:43:56.518Z,36.65
2018-03-28T03:46:25.396Z,34.83
2018-03-28T03:48:53.608Z,34.85
2018-03-28T03:51:21.748Z,35.45
2018-03-28T03:53:49.852Z,34.90
2018-03-28T03:56:18.028Z,36.70
2018-03-28T03:58:46.204Z,35.15
2018-03-28T04:01:14.281Z,35.13
2018-03-28T04:03:42.394Z,37.45
2018-03-28T04:06:10.616Z,35.20
2018-03-28T04:08:39.504Z,33.78
2018-03-28T04:11:07.632Z,34.30
2018-03-28T04:13:35.852Z,32.85
2018-03-28T04:16:04.007Z,32.80
2018-03-28T04:18:32.888Z,31.27
2018-03-28T04:21:01.804Z,28.80
2018-03-28T04:23:30.696Z,29.80
2018-03-28T04:25:58.816Z,29.00
2018-03-28T04:28:26.927Z,29.67
2018-03-28T04:30:55.832Z,28.92
2018-03-28T04:33:23.951Z,28.67
2018-03-28T04:35:52.075Z,28.33
2018-03-28T04:38:20.213Z,28.00
2018-03-28T04:40:48.355Z,26.17
2018-03-28T04:43:16.495Z,27.33
2018-03-28T04:45:45.364Z,26.55
2018-03-28T04:48:14.300Z,26.58
2018-03-28T04:50:42.411Z,26.00
2018-03-28T04:53:10.515Z,25.60
2018-03-28T04:55:39.397Z,26.08
2018-03-28T04:58:08.291Z,27.15
2018-03-28T05:00:37.191Z,27.00
2018-03-28T05:03:05.295Z,27.10
2018-03-28T05:05:33.411Z,26.35
2018-03-28T05:08:01.537Z,25.77
2018-03-28T05:10:29.647Z,26.08
2018-03-28T05:12:57.779Z,26.02
2018-03-28T05:15:25.927Z,26.70
2018-03-28T05:17:54.803Z,26.17
2018-03-28T05:20:23.719Z,22.52
2018-03-28T05:22:51.883Z,22.25
2018-03-28T05:25:20.755Z,21.70
2018-03-28T05:27:49.639Z,22.40
2018-03-28T05:30:18.550Z,21.70
2018-03-28T05:32:47.422Z,20.40
2018-03-28T05:35:16.319Z,21.48
2018-03-28T05:37:45.199Z,20.88
2018-03-28T05:40:14.105Z,21.02
2018-03-28T05:42:43.030Z,21.17
2018-03-28T05:45:11.146Z,20.65
2018-03-28T05:47:39.247Z,21.65
2018-03-28T05:50:07.353Z,21.10
2018-03-28T05:52:35.588Z,21.95
2018-03-28T05:55:04.469Z,21.75
2018-03-28T05:57:33.374Z,21.17
2018-03-28T06:00:01.504Z,19.30
2018-03-28T06:02:29.610Z,18.58
2018-03-28T06:04:58.519Z,16.92
2018-03-28T06:07:27.476Z,16.73
2018-03-28T06:09:55.560Z,15.70
2018-03-28T06:12:24.439Z,15.63
2018-03-28T06:14:52.634Z,16.12
2018-03-28T06:17:21.543Z,15.68
2018-03-28T06:19:49.700Z,14.40
2018-03-28T06:22:18.572Z,14.35
2018-03-28T06:24:47.548Z,14.18
2018-03-28T06:27:15.667Z,14.35
2018-03-28T06:29:43.831Z,13.25
2018-03-28T06:32:12.714Z,13.02
2018-03-28T06:34:41.592Z,14.13
2018-03-28T06:37:10.500Z,12.20
2018-03-28T06:39:39.364Z,12.37
2018-03-28T06:42:08.986Z,11.93
2018-03-28T06:44:37.872Z,12.13
2018-03-28T06:47:06.744Z,10.27
2018-03-28T06:49:34.868Z,10.70
2018-03-28T06:52:03.031Z,10.43
2018-03-28T06:54:32.016Z,10.30
2018-03-28T06:57:00.896Z,9.95
2018-03-28T06:59:29.795Z,9.95
2018-03-28T07:01:58.720Z,9.95
2018-03-28T07:04:26.844Z,10.05
2018-03-28T07:06:55.712Z,9.35
2018-03-28T07:09:23.847Z,10.77
2018-03-28T07:11:51.992Z,10.13
2018-03-28T07:14:20.991Z,11.05
2018-03-28T07:16:49.100Z,10.45
2018-03-28T07:19:17.234Z,8.93
2018-03-28T07:21:46.120Z,10.20
2018-03-28T07:24:14.999Z,9.65
2018-03-28T07:26:43.884Z,9.60
2018-03-28T07:29:11.996Z,9.43
2018-03-28T07:31:40.142Z,9.20
2018-03-28T07:34:09.024Z,10.30
2018-03-28T07:36:37.904Z,9.73
2018-03-28T07:39:07.519Z,9.60
2018-03-28T07:41:36.439Z,9.60
2018-03-28T07:44:04.608Z,11.40
2018-03-28T07:46:32.718Z,11.50
2018-03-28T07:49:00.847Z,12.13
2018-03-28T07:51:28.971Z,12.00
2018-03-28T07:53:57.115Z,13.18
2018-03-28T07:56:25.207Z,14.35
2018-03-28T07:58:53.319Z,13.98
2018-03-28T08:01:22.219Z,15.02
2018-03-28T08:03:51.161Z,16.67
2018-03-28T08:06:19.285Z,14.82
2018-03-28T08:08:48.204Z,16.00
2018-03-28T08:11:16.324Z,15.90
2018-03-28T08:13:45.216Z,16.10
2018-03-28T08:16:14.138Z,16.60
2018-03-28T08:18:42.261Z,17.23
2018-03-28T08:21:10.419Z,17.67
2018-03-28T08:23:38.565Z,16.80
2018-03-28T08:26:06.671Z,17.60
2018-03-28T08:28:34.791Z,17.52
2018-03-28T08:31:03.684Z,18.95
2018-03-28T08:33:31.875Z,17.50
2018-03-28T08:35:59.989Z,17.27
2018-03-28T08:38:28.107Z,17.12
2018-03-28T08:40:56.236Z,16.12
2018-03-28T08:43:24.360Z,15.77
2018-03-28T08:45:52.479Z,15.88
2018-03-28T08:48:20.758Z,14.32
2018-03-28T08:50:48.825Z,14.13
2018-03-28T08:53:16.962Z,12.52
2018-03-28T08:55:45.067Z,11.80
2018-03-28T08:58:13.283Z,11.80
2018-03-28T09:00:42.183Z,12.23
2018-03-28T09:03:10.316Z,12.13
2018-03-28T09:05:40.075Z,12.20
2018-03-28T09:08:08.191Z,10.88
2018-03-28T09:10:36.311Z,11.15
2018-03-28T09:13:04.965Z,11.25
2018-03-28T09:15:33.909Z,11.52
2018-03-28T09:18:02.007Z,10.73
2018-03-28T09:20:30.123Z,10.65
2018-03-28T09:22:59.039Z,10.05
2018-03-28T09:25:27.162Z,10.65
2018-03-28T09:27:56.055Z,9.90
2018-03-28T09:30:24.258Z,10.35
2018-03-28T09:32:52.439Z,9.77
2018-03-28T09:35:20.589Z,9.25
2018-03-28T09:37:49.468Z,9.90
2018-03-28T09:40:18.367Z,8.52
2018-03-28T09:42:46.472Z,9.10
2018-03-28T09:45:14.598Z,9.30
2018-03-28T09:47:43.479Z,8.68
2018-03-28T09:50:11.696Z,9.05
2018-03-28T09:52:39.833Z,8.60
2018-03-28T09:55:07.955Z,9.35
2018-03-28T09:57:36.063Z,8.98
2018-03-28T10:00:04.217Z,9.27
2018-03-28T10:02:32.323Z,9.10
2018-03-28T10:05:01.220Z,9.65
2018-03-28T10:07:30.127Z,8.05
2018-03-28T10:09:59.051Z,8.02
2018-03-28T10:12:27.200Z,8.30
2018-03-28T10:14:55.372Z,6.78
2018-03-28T10:17:23.484Z,6.82
2018-03-28T10:19:51.643Z,6.15
2018-03-28T10:22:19.756Z,6.82
2018-03-28T10:24:49.408Z,6.45
2018-03-28T10:27:17.515Z,5.40
2018-03-28T10:29:45.630Z,5.40
2018-03-28T10:32:14.527Z,5.60
2018-03-28T10:34:43.414Z,5.40
2018-03-28T10:37:12.296Z,4.72
2018-03-28T10:39:41.230Z,4.50
2018-03-28T10:42:09.329Z,4.78
2018-03-28T10:44:37.456Z,4.28
2018-03-28T10:47:05.576Z,4.47
2018-03-28T10:49:33.693Z,4.22
2018-03-28T10:52:02.688Z,4.95
2018-03-28T10:54:30.886Z,4.37
2018-03-28T10:56:58.986Z,5.12
2018-03-28T10:59:27.096Z,5.25
2018-03-28T11:01:56.000Z,6.18
2018-03-28T11:04:24.989Z,4.87
2018-03-28T11:06:53.153Z,5.75
2018-03-28T11:09:22.024Z,5.75
2018-03-28T11:11:50.144Z,6.43
2018-03-28T11:14:18.271Z,6.32
2018-03-28T11:16:47.171Z,6.20
2018-03-28T11:19:16.072Z,6.37
2018-03-28T11:21:44.218Z,7.75
2018-03-28T11:24:13.120Z,7.62
2018-03-28T11:26:42.011Z,7.82
2018-03-28T11:29:10.947Z,7.47
2018-03-28T11:31:39.043Z,7.20
2018-03-28T11:34:07.180Z,7.30
2018-03-28T11:36:35.311Z,7.07
2018-03-28T11:39:04.192Z,7.62
2018-03-28T11:41:33.811Z,7.10
2018-03-28T11:44:01.935Z,6.85
2018-03-28T11:46:30.091Z,7.07
2018-03-28T11:48:58.209Z,7.70
2018-03-28T11:51:26.327Z,8.30
2018-03-28T11:53:54.455Z,8.70
2018-03-28T11:56:22.677Z,8.20
2018-03-28T11:58:50.787Z,8.68
2018-03-28T12:01:18.913Z,8.90
2018-03-28T12:03:47.803Z,8.32
2018-03-28T12:06:15.971Z,8.65
2018-03-28T12:08:44.078Z,8.70
2018-03-28T12:11:12.199Z,9.70
2018-03-28T12:13:41.082Z,8.32
2018-03-28T12:16:09.241Z,8.70
2018-03-28T12:18:37.356Z,10.15
2018-03-28T12:21:05.495Z,8.60
2018-03-28T12:23:35.169Z,8.95
2018-03-28T12:26:03.288Z,8.60
2018-03-28T12:28:31.402Z,7.60
2018-03-28T12:30:59.559Z,8.38
2018-03-28T12:33:28.459Z,8.23
2018-03-28T12:35:56.607Z,8.65
2018-03-28T12:38:25.498Z,9.00
2018-03-28T12:40:54.379Z,9.65
2018-03-28T12:43:22.526Z,9.55
2018-03-28T12:45:50.646Z,8.95
2018-03-28T12:48:18.774Z,10.20
2018-03-28T12:50:46.903Z,8.85
2018-03-28T12:53:15.019Z,8.68
2018-03-28T12:55:43.694Z,7.78
2018-03-28T12:58:11.262Z,8.35
2018-03-28T13:00:39.418Z,8.75
2018-03-28T13:03:07.530Z,9.60
2018-03-28T13:05:36.442Z,8.82
2018-03-28T13:08:04.631Z,8.60
2018-03-28T13:10:32.680Z,9.32
2018-03-28T13:13:01.570Z,9.55
2018-03-28T13:15:30.454Z,8.85
2018-03-28T13:17:59.802Z,8.30
2018-03-28T13:20:27.896Z,8.88
2018-03-28T13:22:56.027Z,8.48
2018-03-28T13:25:24.148Z,9.82
2018-03-28T13:27:52.286Z,8.32
2018-03-28T13:30:20.389Z,8.85
2018-03-28T13:32:48.494Z,8.35
2018-03-28T13:35:17.396Z,8.38
2018-03-28T13:37:45.569Z,8.05
2018-03-28T13:40:13.692Z,8.88
2018-03-28T13:42:41.808Z,7.30
2018-03-28T13:45:10.730Z,7.15
2018-03-28T13:47:38.858Z,6.65
2018-03-28T13:50:07.755Z,7.22
2018-03-28T13:52:36.634Z,7.07
2018-03-28T13:55:05.554Z,6.97
2018-03-28T13:57:34.432Z,5.97
2018-03-28T14:00:03.322Z,5.82
2018-03-28T14:02:32.323Z,6.93
2018-03-28T14:05:00.498Z,7.78
2018-03-28T14:07:28.627Z,6.00
2018-03-28T14:09:56.756Z,6.60
2018-03-28T14:12:24.880Z,6.50
2018-03-28T14:14:54.506Z,7.47
2018-03-28T14:17:23.507Z,6.62
2018-03-28T14:19:52.400Z,6.22
2018-03-28T14:22:20.512Z,5.47
2018-03-28T14:24:48.676Z,5.10
2018-03-28T14:27:16.792Z,4.50
2018-03-28T14:29:45.707Z,4.93
2018-03-28T14:32:13.916Z,4.47
2018-03-28T14:34:42.005Z,4.80
2018-03-28T14:37:10.128Z,4.57
2018-03-28T14:42:13.586Z,4.28
2018-03-28T14:44:41.696Z,4.50
2018-03-28T14:47:10.607Z,5.10
2018-03-28T14:49:38.727Z,4.40
2018-03-28T14:52:06.852Z,4.37
2018-03-28T14:54:35.023Z,5.00
2018-03-28T14:57:03.983Z,4.70
2018-03-28T14:59:32.091Z,5.30
2018-03-28T15:02:00.206Z,4.90
2018-03-28T15:04:28.341Z,4.82
2018-03-28T15:06:56.499Z,5.00
2018-03-28T15:09:25.393Z,5.07
2018-03-28T15:11:54.307Z,5.62
2018-03-28T15:14:22.475Z,5.75
2018-03-28T15:16:50.587Z,5.50
2018-03-28T15:19:18.735Z,6.18
2018-03-28T15:21:46.855Z,5.60
2018-03-28T15:24:15.000Z,6.18
2018-03-28T15:26:43.107Z,6.47
2018-03-28T15:29:11.999Z,6.07
2018-03-28T15:31:40.879Z,6.15
2018-03-28T15:34:09.037Z,6.80
2018-03-28T15:36:37.154Z,6.87
2018-03-28T15:39:05.315Z,6.60
2018-03-28T15:41:34.221Z,7.10
2018-03-28T15:44:02.338Z,6.80
2018-03-28T15:46:30.480Z,6.07
2018-03-28T15:48:58.640Z,7.70
2018-03-28T15:51:26.807Z,7.20
2018-03-28T15:53:54.954Z,5.85
2018-03-28T15:56:23.845Z,7.10
2018-03-28T15:58:53.481Z,5.40
2018-03-28T16:01:21.645Z,4.30
2018-03-28T16:03:50.708Z,5.30
2018-03-28T16:06:18.867Z,6.53
2018-03-28T16:08:47.215Z,7.30
2018-03-28T16:11:16.077Z,8.68
2018-03-28T16:13:45.005Z,8.18
2018-03-28T16:16:13.135Z,8.63
2018-03-28T16:18:42.069Z,10.10
2018-03-28T16:21:10.242Z,12.30
2018-03-28T16:23:38.393Z,13.73
2018-03-28T16:26:06.526Z,17.83
2018-03-28T16:28:36.172Z,20.42
2018-03-28T16:31:04.328Z,18.83
2018-03-28T16:33:33.254Z,20.58
2018-03-28T16:36:01.414Z,21.17
2018-03-28T16:38:29.552Z,13.52
2018-03-28T16:40:58.574Z,9.23
2018-03-28T16:43:26.780Z,7.97
2018-03-28T16:45:54.915Z,6.97
2018-03-28T16:48:23.800Z,6.35
2018-03-28T16:50:52.694Z,6.28
2018-03-28T16:53:21.693Z,7.07
2018-03-28T16:55:50.554Z,7.00
2018-03-28T16:58:19.365Z,6.10
2018-03-28T17:00:48.232Z,6.68
2018-03-28T17:03:16.336Z,6.85
2018-03-28T17:05:44.468Z,6.85
2018-03-28T17:08:12.628Z,7.25
2018-03-28T17:10:41.554Z,7.78
2018-03-28T17:13:10.427Z,6.80
2018-03-28T17:15:38.528Z,7.50
2018-03-28T17:18:07.422Z,7.18
2018-03-28T17:20:36.308Z,9.48
2018-03-28T17:23:05.183Z,9.65
2018-03-28T17:25:34.060Z,8.25
2018-03-28T17:28:02.268Z,7.82
2018-03-28T17:30:31.160Z,6.60
2018-03-28T17:32:59.437Z,7.07
2018-03-28T17:35:28.308Z,6.70
2018-03-28T17:37:57.307Z,7.82
2018-03-28T17:40:26.401Z,7.22
2018-03-28T17:42:55.280Z,8.82
2018-03-28T17:45:24.396Z,12.68
2018-03-28T17:47:52.508Z,16.10
2018-03-28T17:50:20.634Z,17.65
2018-03-28T17:52:49.512Z,18.83
2018-03-28T17:55:18.391Z,18.55
2018-03-28T17:57:48.025Z,17.67
2018-03-28T18:00:17.050Z,13.40
2018-03-28T18:02:45.143Z,10.80
2018-03-28T18:05:13.307Z,6.53
2018-03-28T18:07:41.435Z,5.37
2018-03-28T18:10:10.321Z,4.82
2018-03-28T18:12:39.188Z,5.72
2018-03-28T18:15:07.387Z,6.18
2018-03-28T18:17:36.268Z,6.62
2018-03-28T18:20:05.164Z,5.72
2018-03-28T18:22:34.028Z,6.03
2018-03-28T18:25:02.127Z,5.62
2018-03-28T18:27:31.133Z,4.20
2018-03-28T18:30:00.004Z,4.07
2018-03-28T18:32:29.487Z,3.87
2018-03-28T18:34:57.611Z,3.90
2018-03-28T18:37:25.755Z,3.60
2018-03-28T18:39:54.660Z,3.72
2018-03-28T18:42:22.826Z,3.33
2018-03-28T18:44:51.707Z,3.65
2018-03-28T18:47:20.574Z,3.65
2018-03-28T18:49:48.687Z,4.12
2018-03-28T18:52:16.869Z,4.25
2018-03-28T18:54:45.755Z,5.43
2018-03-28T18:57:13.891Z,5.68
2018-03-28T18:59:42.011Z,4.57
2018-03-28T19:02:10.113Z,4.37
2018-03-28T19:04:38.215Z,4.25
2018-03-28T19:07:07.145Z,4.50
2018-03-28T19:09:36.063Z,4.95
2018-03-28T19:12:04.286Z,5.62
2018-03-28T19:14:33.166Z,6.07
2018-03-28T19:17:02.038Z,7.90
2018-03-28T19:19:31.663Z,7.80
2018-03-28T19:22:00.609Z,9.80
2018-03-28T19:24:28.738Z,14.93
2018-03-28T19:26:56.891Z,18.12
2018-03-28T19:29:25.763Z,19.35
2018-03-28T19:31:53.895Z,20.95
2018-03-28T19:34:21.990Z,21.10
2018-03-28T19:36:50.109Z,21.02
2018-03-28T19:39:19.018Z,21.83
2018-03-28T19:41:47.148Z,22.08
2018-03-28T19:44:15.255Z,18.58
2018-03-28T19:46:43.366Z,15.32
2018-03-28T19:49:11.486Z,14.57
2018-03-28T19:51:40.433Z,14.02
2018-03-28T19:54:08.526Z,13.02
2018-03-28T19:56:38.145Z,10.93
2018-03-28T19:59:06.267Z,11.68
2018-03-28T20:01:34.386Z,10.50
2018-03-28T20:04:03.291Z,10.95
2018-03-28T20:06:32.180Z,12.82
2018-03-28T20:09:01.060Z,11.70
2018-03-28T20:11:29.976Z,12.45
2018-03-28T20:13:58.109Z,11.38
2018-03-28T20:16:26.212Z,10.63
2018-03-28T20:18:54.342Z,10.02
2018-03-28T20:21:22.480Z,9.68
2018-03-28T20:23:50.624Z,11.27
2018-03-28T20:26:19.505Z,10.77
2018-03-28T20:28:48.424Z,9.77
2018-03-28T20:31:16.554Z,9.98
2018-03-28T20:33:44.668Z,9.57
2018-03-28T20:36:12.776Z,9.85
2018-03-28T20:38:40.902Z,10.57
2018-03-28T20:41:09.028Z,8.95
2018-03-28T20:43:37.157Z,8.80
2018-03-28T20:46:05.344Z,8.23
2018-03-28T20:48:33.429Z,8.20
2018-03-28T20:51:01.656Z,7.22
2018-03-28T20:53:30.856Z,7.82
2018-03-28T20:55:59.732Z,6.97
2018-03-28T20:58:28.644Z,7.40
2018-03-28T21:00:56.768Z,6.07
2018-03-28T21:03:24.852Z,7.10
2018-03-28T21:05:52.968Z,6.97
2018-03-28T21:08:21.124Z,6.10
2018-03-28T21:10:50.120Z,6.53
2018-03-28T21:13:19.107Z,6.60
2018-03-28T21:15:47.980Z,7.82
2018-03-28T21:18:16.167Z,7.28
2018-03-28T21:20:45.058Z,9.65
2018-03-28T21:23:13.947Z,9.68
2018-03-28T21:25:42.826Z,11.70
2018-03-28T21:28:10.944Z,10.52
2018-03-28T21:30:39.072Z,10.20
2018-03-28T21:33:08.028Z,11.55
2018-03-28T21:35:36.131Z,11.55
2018-03-28T21:38:04.319Z,12.20
2018-03-28T21:40:33.213Z,10.88
2018-03-28T21:43:02.148Z,11.77
2018-03-28T21:45:30.286Z,12.07
2018-03-28T21:47:58.411Z,11.68
2018-03-28T21:50:26.624Z,13.43
2018-03-28T21:52:55.521Z,13.30
2018-03-28T21:55:24.507Z,12.27
2018-03-28T21:57:53.400Z,13.00
2018-03-28T22:00:22.299Z,13.77
2018-03-28T22:02:50.427Z,13.48
2018-03-28T22:05:18.528Z,12.05
2018-03-28T22:07:47.404Z,12.80
2018-03-28T22:10:15.522Z,14.05
2018-03-28T22:12:43.643Z,13.23
2018-03-28T22:15:11.761Z,14.23
2018-03-28T22:17:39.884Z,14.05
2018-03-28T22:20:07.996Z,14.15
2018-03-28T22:22:36.119Z,15.13
2018-03-28T22:25:04.325Z,14.35
2018-03-28T22:27:33.207Z,15.27
2018-03-28T22:30:02.143Z,15.07
2018-03-28T22:32:31.015Z,15.82
2018-03-28T22:34:59.175Z,15.40
2018-03-28T22:37:27.291Z,14.68
2018-03-28T22:39:55.425Z,15.23
2018-03-28T22:42:23.559Z,15.15
2018-03-28T22:44:51.674Z,16.15
2018-03-28T22:47:19.839Z,15.38
2018-03-28T22:49:47.979Z,16.80
2018-03-28T22:52:16.123Z,16.85
2018-03-28T22:54:44.226Z,16.25
2018-03-28T22:57:12.343Z,17.45
2018-03-28T22:59:40.461Z,15.15
2018-03-28T23:02:08.603Z,14.13
2018-03-28T23:04:36.713Z,11.75
2018-03-28T23:07:04.830Z,14.43
2018-03-28T23:09:32.934Z,12.20
2018-03-28T23:12:01.065Z,13.07
2018-03-28T23:14:29.214Z,11.90
2018-03-28T23:16:58.121Z,11.40
2018-03-28T23:19:26.224Z,11.43
2018-03-28T23:21:54.346Z,12.07
2018-03-28T23:24:23.250Z,12.88
2018-03-28T23:26:52.173Z,11.57
2018-03-28T23:29:20.275Z,12.02
2018-03-28T23:31:48.419Z,10.68
2018-03-28T23:34:16.551Z,10.90
2018-03-28T23:36:45.438Z,13.50
2018-03-28T23:39:14.315Z,11.68
2018-03-28T23:41:42.437Z,11.65
2018-03-28T23:44:10.562Z,12.00
2018-03-28T23:46:38.699Z,10.45
2018-03-28T23:49:06.862Z,11.70
2018-03-28T23:51:34.977Z,11.10
2018-03-28T23:54:03.114Z,10.40
2018-03-28T23:56:31.223Z,11.07
2018-03-28T23:58:59.362Z,10.50
